createdAt,value
2017-11-12T00:00:44.028Z,99.60
2017-11-12T00:03:12.440Z,99.50
2017-11-12T00:05:40.561Z,99.40
2017-11-12T00:08:08.704Z,99.30
2017-11-12T00:10:36.808Z,99.50
2017-11-12T00:13:05.445Z,99.70
2017-11-12T00:15:33.560Z,99.80
2017-11-12T00:18:01.680Z,99.90
2017-11-12T00:20:29.818Z,99.80
2017-11-12T00:22:57.929Z,99.80
2017-11-12T00:25:26.792Z,99.80
2017-11-12T00:27:54.913Z,99.80
2017-11-12T00:30:23.070Z,99.80
2017-11-12T00:32:51.484Z,99.90
2017-11-12T00:35:19.604Z,99.80
2017-11-12T00:37:47.744Z,99.60
2017-11-12T00:40:15.856Z,99.60
2017-11-12T00:42:45.111Z,99.80
2017-11-12T00:45:13.231Z,99.80
2017-11-12T00:47:42.076Z,99.30
2017-11-12T00:50:10.215Z,99.30
2017-11-12T00:52:38.912Z,99.40
2017-11-12T00:55:07.028Z,99.30
2017-11-12T00:57:35.177Z,99.60
2017-11-12T01:00:03.316Z,99.60
2017-11-12T01:02:31.444Z,99.90
2017-11-12T01:05:00.037Z,99.90
2017-11-12T01:07:28.175Z,99.90
2017-11-12T01:09:56.309Z,99.90
2017-11-12T01:12:24.449Z,99.90
2017-11-12T01:14:52.572Z,99.80
2017-11-12T01:17:21.024Z,99.80
2017-11-12T01:19:49.901Z,99.90
2017-11-12T01:22:18.034Z,99.90
2017-11-12T01:24:46.145Z,99.90
2017-11-12T01:27:14.250Z,99.90
2017-11-12T01:29:42.361Z,99.90
2017-11-12T01:32:10.524Z,99.90
2017-11-12T01:34:38.668Z,99.90
2017-11-12T01:37:06.785Z,99.90
2017-11-12T01:39:34.920Z,99.70
2017-11-12T01:42:03.424Z,99.50
2017-11-12T01:44:31.622Z,99.30
2017-11-12T01:46:59.749Z,99.20
2017-11-12T01:49:27.869Z,99.00
2017-11-12T01:51:56.017Z,99.00
2017-11-12T01:54:24.156Z,99.00
2017-11-12T01:56:53.072Z,99.20
2017-11-12T01:59:21.197Z,99.20
2017-11-12T02:01:50.427Z,99.20
2017-11-12T02:04:19.309Z,99.30
2017-11-12T02:06:48.412Z,99.40
2017-11-12T02:09:17.329Z,99.40
2017-11-12T02:11:45.464Z,99.30
2017-11-12T02:14:13.615Z,99.60
2017-11-12T02:16:41.780Z,99.40
2017-11-12T02:19:09.957Z,99.20
2017-11-12T02:21:38.183Z,99.20
2017-11-12T02:24:06.365Z,99.00
2017-11-12T02:26:34.880Z,99.20
2017-11-12T02:29:03.078Z,99.20
2017-11-12T02:31:31.308Z,99.20
2017-11-12T02:33:59.534Z,99.20
2017-11-12T02:36:27.726Z,99.30
2017-11-12T02:38:56.688Z,99.40
2017-11-12T02:41:24.865Z,99.30
2017-11-12T02:43:53.076Z,99.30
2017-11-12T02:46:21.268Z,99.40
2017-11-12T02:48:49.444Z,99.40
2017-11-12T02:51:18.050Z,99.30
2017-11-12T02:53:46.291Z,99.40
2017-11-12T02:56:14.565Z,99.10
2017-11-12T02:58:42.680Z,98.50
2017-11-12T03:01:10.831Z,98.40
2017-11-12T03:03:38.972Z,98.10
2017-11-12T03:06:07.841Z,97.70
2017-11-12T03:08:36.348Z,97.60
2017-11-12T03:11:05.277Z,97.60
2017-11-12T03:13:33.393Z,97.60
2017-11-12T03:16:01.920Z,97.60
2017-11-12T03:18:30.065Z,97.60
2017-11-12T03:20:58.223Z,97.60
2017-11-12T03:23:27.087Z,97.70
2017-11-12T03:25:55.321Z,97.70
2017-11-12T03:28:23.513Z,97.80
2017-11-12T03:30:51.646Z,97.80
2017-11-12T03:33:19.797Z,97.70
2017-11-12T03:35:47.913Z,97.70
2017-11-12T03:38:16.071Z,97.70
2017-11-12T03:40:44.481Z,97.90
2017-11-12T03:43:12.588Z,98.00
2017-11-12T03:45:40.724Z,98.10
2017-11-12T03:48:08.881Z,98.30
2017-11-12T03:50:37.831Z,98.10
2017-11-12T03:53:06.000Z,98.10
2017-11-12T03:55:34.125Z,98.10
2017-11-12T03:58:03.069Z,98.20
2017-11-12T04:00:31.297Z,98.10
2017-11-12T04:03:00.302Z,98.20
2017-11-12T04:05:28.873Z,97.90
2017-11-12T04:07:57.020Z,98.00
2017-11-12T04:10:25.425Z,98.00
2017-11-12T04:12:53.638Z,97.90
2017-11-12T04:15:21.841Z,98.00
2017-11-12T04:17:50.199Z,98.30
2017-11-12T04:20:18.352Z,98.10
2017-11-12T04:22:47.848Z,98.80
2017-11-12T04:25:15.972Z,98.00
2017-11-12T04:27:44.581Z,97.80
2017-11-12T04:30:13.469Z,97.90
2017-11-12T04:32:42.346Z,97.90
2017-11-12T04:35:25.316Z,97.90
2017-11-12T04:37:53.732Z,98.00
2017-11-12T04:40:21.924Z,98.20
2017-11-12T04:42:50.048Z,98.00
2017-11-12T04:45:18.184Z,97.90
2017-11-12T04:47:47.310Z,97.80
2017-11-12T04:50:15.429Z,97.50
2017-11-12T04:52:43.749Z,97.50
2017-11-12T04:55:11.878Z,97.70
2017-11-12T04:57:40.017Z,97.60
2017-11-12T05:00:08.257Z,97.40
2017-11-12T05:02:36.404Z,97.30
2017-11-12T05:05:04.545Z,97.30
2017-11-12T05:07:33.015Z,97.20
2017-11-12T05:10:01.164Z,97.00
2017-11-12T05:12:29.276Z,97.00
2017-11-12T05:14:57.401Z,97.00
2017-11-12T05:17:26.273Z,97.00
2017-11-12T05:19:54.388Z,96.80
2017-11-12T05:22:22.498Z,97.10
2017-11-12T05:24:50.616Z,97.30
2017-11-12T05:27:18.774Z,97.20
2017-11-12T05:29:46.917Z,97.10
2017-11-12T05:32:15.550Z,97.10
2017-11-12T05:34:44.431Z,97.30
2017-11-12T05:37:12.576Z,97.30
2017-11-12T05:39:40.708Z,97.30
2017-11-12T05:42:08.837Z,97.30
2017-11-12T05:44:36.965Z,97.40
2017-11-12T05:47:05.087Z,97.30
2017-11-12T05:49:33.202Z,97.10
2017-11-12T05:52:01.309Z,97.00
2017-11-12T05:54:29.425Z,97.00
2017-11-12T05:56:58.709Z,97.20
2017-11-12T05:59:27.569Z,97.70
2017-11-12T06:01:55.688Z,97.10
2017-11-12T06:04:24.533Z,97.40
2017-11-12T06:06:52.740Z,97.20
2017-11-12T06:09:21.365Z,97.40
2017-11-12T06:11:49.485Z,97.00
2017-11-12T06:14:17.701Z,96.90
2017-11-12T06:16:45.880Z,96.80
2017-11-12T06:19:14.100Z,96.60
2017-11-12T06:21:42.549Z,96.80
2017-11-12T06:24:10.713Z,96.70
2017-11-12T06:26:38.901Z,96.50
2017-11-12T06:29:07.068Z,96.80
2017-11-12T06:31:35.197Z,96.90
2017-11-12T06:34:04.092Z,96.60
2017-11-12T06:36:32.979Z,96.50
2017-11-12T06:39:02.288Z,96.40
2017-11-12T06:41:31.152Z,96.50
2017-11-12T06:43:59.260Z,96.40
2017-11-12T06:46:27.396Z,96.50
2017-11-12T06:48:55.529Z,96.50
2017-11-12T06:51:23.648Z,96.30
2017-11-12T06:53:51.765Z,96.10
2017-11-12T06:56:19.896Z,96.00
2017-11-12T06:58:48.069Z,95.80
2017-11-12T07:01:16.203Z,95.80
2017-11-12T07:03:44.625Z,95.70
2017-11-12T07:06:12.773Z,95.70
2017-11-12T07:08:40.894Z,95.60
2017-11-12T07:11:09.028Z,95.40
2017-11-12T07:13:37.191Z,95.40
2017-11-12T07:16:05.402Z,95.90
2017-11-12T07:18:33.577Z,95.30
2017-11-12T07:21:01.704Z,95.10
2017-11-12T07:23:29.853Z,95.50
2017-11-12T07:25:58.316Z,95.50
2017-11-12T07:28:27.168Z,95.10
2017-11-12T07:30:55.300Z,95.10
2017-11-12T07:33:23.449Z,95.10
2017-11-12T07:35:51.576Z,95.10
2017-11-12T07:38:19.697Z,95.00
2017-11-12T07:40:48.565Z,94.60
2017-11-12T07:43:16.716Z,94.60
2017-11-12T07:45:45.132Z,94.50
2017-11-12T07:48:13.370Z,94.30
2017-11-12T07:50:41.500Z,94.20
2017-11-12T07:53:10.339Z,94.00
2017-11-12T07:55:38.448Z,93.90
2017-11-12T07:58:07.336Z,94.00
2017-11-12T08:00:35.452Z,94.00
2017-11-12T08:03:03.956Z,94.10
2017-11-12T08:05:32.144Z,94.10
2017-11-12T08:08:00.335Z,94.10
2017-11-12T08:10:28.500Z,94.10
2017-11-12T08:12:56.685Z,93.40
2017-11-12T08:15:24.828Z,93.20
2017-11-12T08:17:52.964Z,93.30
2017-11-12T08:20:21.109Z,93.10
2017-11-12T08:22:49.245Z,92.70
2017-11-12T08:25:17.368Z,92.50
2017-11-12T08:27:46.685Z,92.30
2017-11-12T08:30:14.872Z,92.20
2017-11-12T08:32:43.020Z,92.40
2017-11-12T08:35:11.930Z,91.80
2017-11-12T08:37:40.318Z,91.80
2017-11-12T08:40:08.502Z,92.00
2017-11-12T08:42:36.705Z,91.90
2017-11-12T08:45:04.929Z,91.90
2017-11-12T08:47:33.073Z,91.50
2017-11-12T08:50:02.020Z,91.10
2017-11-12T08:52:30.560Z,90.70
2017-11-12T08:54:58.731Z,90.80
2017-11-12T08:57:27.596Z,90.30
2017-11-12T08:59:55.750Z,90.30
2017-11-12T09:02:23.901Z,90.10
2017-11-12T09:04:52.040Z,89.90
2017-11-12T09:07:20.196Z,89.80
2017-11-12T09:09:49.112Z,89.60
2017-11-12T09:12:17.284Z,89.60
2017-11-12T09:14:46.177Z,89.40
2017-11-12T09:17:15.377Z,89.90
2017-11-12T09:19:43.592Z,89.80
2017-11-12T09:22:11.721Z,89.60
2017-11-12T09:24:39.913Z,89.00
2017-11-12T09:27:08.032Z,89.50
2017-11-12T09:29:36.194Z,88.90
2017-11-12T09:32:04.396Z,88.40
2017-11-12T09:34:32.549Z,88.20
2017-11-12T09:37:00.685Z,88.80
2017-11-12T09:39:28.870Z,90.00
2017-11-12T09:41:57.023Z,89.30
2017-11-12T09:44:25.939Z,90.30
2017-11-12T09:46:54.073Z,90.30
2017-11-12T09:49:22.233Z,89.50
2017-11-12T09:51:50.396Z,89.20
2017-11-12T09:54:18.545Z,88.40
2017-11-12T09:56:46.699Z,87.80
2017-11-12T09:59:14.864Z,87.10
2017-11-12T10:01:43.000Z,86.90
2017-11-12T10:04:11.501Z,86.90
2017-11-12T10:06:40.813Z,87.20
2017-11-12T10:09:09.724Z,86.10
2017-11-12T10:11:37.833Z,85.90
2017-11-12T10:14:05.949Z,86.50
2017-11-12T10:16:34.083Z,86.60
2017-11-12T10:19:02.229Z,86.50
2017-11-12T10:21:30.419Z,86.20
2017-11-12T10:23:58.573Z,86.00
2017-11-12T10:26:26.694Z,85.90
2017-11-12T10:28:54.824Z,85.60
2017-11-12T10:31:22.947Z,85.50
2017-11-12T10:33:51.081Z,84.80
2017-11-12T10:36:19.221Z,84.40
2017-11-12T10:38:47.519Z,84.10
2017-11-12T10:41:15.638Z,84.40
2017-11-12T10:43:44.136Z,84.40
2017-11-12T10:46:12.267Z,84.30
2017-11-12T10:48:40.400Z,84.40
2017-11-12T10:51:08.521Z,84.00
2017-11-12T10:53:36.664Z,84.10
2017-11-12T10:56:04.820Z,83.80
2017-11-12T10:58:32.942Z,83.70
2017-11-12T11:01:01.067Z,83.50
2017-11-12T11:03:29.385Z,83.50
2017-11-12T11:05:57.552Z,83.40
2017-11-12T11:08:26.076Z,83.40
2017-11-12T11:10:54.220Z,83.00
2017-11-12T11:13:22.336Z,83.10
2017-11-12T11:15:50.460Z,83.40
2017-11-12T11:18:18.593Z,83.60
2017-11-12T11:20:47.460Z,82.50
2017-11-12T11:23:15.953Z,82.40
2017-11-12T11:25:44.817Z,82.90
2017-11-12T11:28:12.953Z,82.80
2017-11-12T11:30:41.063Z,82.60
2017-11-12T11:33:09.197Z,82.10
2017-11-12T11:35:37.321Z,82.00
2017-11-12T11:38:05.481Z,81.60
2017-11-12T11:40:33.600Z,81.30
2017-11-12T11:43:01.721Z,80.80
2017-11-12T11:45:30.145Z,80.70
2017-11-12T11:47:58.273Z,80.20
2017-11-12T11:50:26.416Z,80.10
2017-11-12T11:52:55.696Z,79.90
2017-11-12T11:55:24.718Z,78.70
2017-11-12T11:57:52.873Z,78.60
2017-11-12T12:00:21.104Z,78.00
2017-11-12T12:02:49.617Z,78.30
2017-11-12T12:05:18.522Z,78.70
2017-11-12T12:07:46.684Z,78.60
2017-11-12T12:10:14.810Z,79.30
2017-11-12T12:12:43.171Z,79.50
2017-11-12T12:15:11.328Z,79.70
2017-11-12T12:17:39.465Z,79.90
2017-11-12T12:20:07.632Z,80.10
2017-11-12T12:22:35.791Z,80.30
2017-11-12T12:25:03.973Z,80.80
2017-11-12T12:27:32.590Z,80.80
2017-11-12T12:30:01.453Z,80.30
2017-11-12T12:32:29.609Z,80.10
2017-11-12T12:34:57.737Z,80.00
2017-11-12T12:37:25.921Z,80.80
2017-11-12T12:39:54.060Z,81.00
2017-11-12T12:42:22.254Z,81.00
2017-11-12T12:44:51.124Z,81.10
2017-11-12T12:47:19.268Z,81.00
2017-11-12T12:49:47.492Z,80.80
2017-11-12T12:52:16.804Z,81.20
2017-11-12T12:54:45.675Z,80.80
2017-11-12T12:57:14.541Z,80.60
2017-11-12T12:59:42.665Z,80.50
2017-11-12T13:02:10.796Z,80.40
2017-11-12T13:04:38.968Z,80.60
2017-11-12T13:07:07.168Z,80.70
2017-11-12T13:09:35.292Z,80.50
2017-11-12T13:12:03.435Z,80.40
2017-11-12T13:14:31.988Z,80.30
2017-11-12T13:17:00.170Z,80.70
2017-11-12T13:19:29.093Z,81.00
2017-11-12T13:21:57.265Z,80.90
2017-11-12T13:24:25.405Z,80.90
2017-11-12T13:26:54.774Z,82.40
2017-11-12T13:29:22.997Z,81.50
2017-11-12T13:31:51.937Z,81.40
2017-11-12T13:34:20.112Z,81.40
2017-11-12T13:36:48.252Z,81.50
2017-11-12T13:39:16.392Z,81.30
2017-11-12T13:41:44.585Z,80.80
2017-11-12T13:44:13.529Z,81.30
2017-11-12T13:46:41.664Z,81.10
2017-11-12T13:49:09.793Z,81.00
2017-11-12T13:51:37.930Z,80.70
2017-11-12T13:54:06.409Z,80.30
2017-11-12T13:56:34.556Z,79.70
2017-11-12T13:59:02.695Z,80.30
2017-11-12T14:01:30.841Z,80.80
2017-11-12T14:03:58.978Z,80.60
2017-11-12T14:06:27.111Z,80.90
2017-11-12T14:09:01.616Z,81.00
2017-11-12T14:11:30.114Z,80.80
2017-11-12T14:13:58.761Z,81.10
2017-11-12T14:16:26.881Z,81.10
2017-11-12T14:18:54.992Z,81.30
2017-11-12T14:21:23.160Z,81.70
2017-11-12T14:23:52.081Z,81.60
2017-11-12T14:26:20.201Z,81.40
2017-11-12T14:28:48.338Z,82.10
2017-11-12T14:31:16.489Z,82.60
2017-11-12T14:33:44.609Z,83.10
2017-11-12T14:36:12.727Z,83.30
2017-11-12T14:38:41.316Z,83.40
2017-11-12T14:41:09.425Z,83.60
2017-11-12T14:43:37.622Z,83.60
2017-11-12T14:46:05.849Z,83.90
2017-11-12T14:48:34.063Z,84.10
2017-11-12T14:51:02.373Z,84.10
2017-11-12T14:53:30.541Z,84.40
2017-11-12T14:55:59.845Z,84.90
2017-11-12T14:58:28.761Z,85.00
2017-11-12T15:00:56.940Z,84.90
2017-11-12T15:03:25.147Z,85.50
2017-11-12T15:05:53.289Z,85.50
2017-11-12T15:08:21.404Z,86.00
2017-11-12T15:10:49.536Z,86.40
2017-11-12T15:13:17.688Z,86.40
2017-11-12T15:15:45.815Z,86.70
2017-11-12T15:18:13.953Z,86.80
2017-11-12T15:20:42.413Z,86.70
2017-11-12T15:23:11.300Z,86.50
2017-11-12T15:25:55.407Z,86.50
2017-11-12T15:28:23.557Z,86.40
2017-11-12T15:30:51.685Z,86.80
2017-11-12T15:33:20.574Z,87.50
2017-11-12T15:35:48.749Z,87.50
2017-11-12T15:38:16.877Z,88.00
2017-11-12T15:40:45.025Z,88.30
2017-11-12T15:43:13.169Z,88.50
2017-11-12T15:45:41.385Z,88.90
2017-11-12T15:48:09.854Z,89.10
2017-11-12T15:50:38.004Z,89.00
2017-11-12T15:53:06.164Z,89.20
2017-11-12T15:55:34.313Z,89.50
2017-11-12T15:58:02.454Z,89.80
2017-11-12T16:00:30.653Z,89.80
2017-11-12T16:02:59.865Z,89.80
2017-11-12T16:05:27.992Z,90.00
2017-11-12T16:07:56.468Z,90.10
2017-11-12T16:10:25.341Z,91.60
2017-11-12T16:12:54.217Z,91.00
2017-11-12T16:15:22.385Z,90.60
2017-11-12T16:17:51.999Z,90.60
2017-11-12T16:20:20.109Z,90.40
2017-11-12T16:22:48.997Z,90.60
2017-11-12T16:25:17.165Z,90.50
2017-11-12T16:27:45.289Z,90.80
2017-11-12T16:30:13.498Z,90.80
2017-11-12T16:32:42.817Z,91.30
2017-11-12T16:35:11.725Z,90.60
2017-11-12T16:37:39.893Z,90.50
2017-11-12T16:40:08.056Z,90.40
2017-11-12T16:42:36.246Z,90.10
2017-11-12T16:45:04.409Z,90.10
2017-11-12T16:47:33.279Z,90.40
2017-11-12T16:50:01.513Z,90.30
2017-11-12T16:52:29.679Z,90.50
2017-11-12T16:54:58.144Z,90.60
2017-11-12T16:57:26.555Z,90.50
2017-11-12T16:59:54.749Z,90.90
2017-11-12T17:02:24.420Z,91.50
2017-11-12T17:04:52.582Z,91.50
2017-11-12T17:07:20.857Z,91.60
2017-11-12T17:09:49.123Z,91.80
2017-11-12T17:12:18.014Z,92.10
2017-11-12T17:14:46.182Z,92.00
2017-11-12T17:17:15.117Z,92.20
2017-11-12T17:19:43.252Z,92.10
2017-11-12T17:22:11.750Z,92.50
2017-11-12T17:24:39.941Z,92.80
2017-11-12T17:27:08.096Z,93.10
2017-11-12T17:29:36.253Z,93.10
2017-11-12T17:32:05.179Z,93.20
2017-11-12T17:34:33.374Z,93.20
2017-11-12T17:37:01.514Z,93.10
2017-11-12T17:39:29.656Z,93.30
2017-11-12T17:41:57.791Z,93.10
2017-11-12T17:44:25.932Z,93.00
2017-11-12T17:46:55.372Z,92.90
2017-11-12T17:49:23.520Z,92.80
2017-11-12T17:51:51.645Z,92.90
2017-11-12T17:54:19.781Z,92.80
2017-11-12T17:56:47.945Z,93.00
2017-11-12T17:59:16.105Z,93.30
2017-11-12T18:01:44.237Z,93.30
2017-11-12T18:04:12.393Z,93.30
2017-11-12T18:06:41.865Z,93.00
2017-11-12T18:09:10.025Z,92.60
2017-11-12T18:11:38.157Z,92.60
2017-11-12T18:14:06.314Z,92.50
2017-11-12T18:16:34.457Z,92.60
2017-11-12T18:19:02.607Z,92.70
2017-11-12T18:21:31.985Z,92.80
2017-11-12T18:24:01.617Z,93.00
2017-11-12T18:26:30.481Z,93.40
2017-11-12T18:28:58.630Z,93.30
2017-11-12T18:31:26.777Z,93.80
2017-11-12T18:33:54.921Z,93.80
2017-11-12T18:36:24.789Z,93.50
2017-11-12T18:38:53.002Z,93.50
2017-11-12T18:41:21.929Z,93.40
2017-11-12T18:43:50.116Z,93.40
2017-11-12T18:46:18.317Z,93.30
2017-11-12T18:48:46.512Z,93.20
2017-11-12T18:51:14.709Z,93.40
2017-11-12T18:53:43.650Z,93.80
2017-11-12T18:56:11.856Z,93.80
2017-11-12T18:58:40.947Z,94.20
2017-11-12T19:01:09.805Z,93.90
2017-11-12T19:03:40.696Z,94.10
2017-11-12T19:06:13.411Z,94.20
2017-11-12T19:08:41.729Z,94.40
2017-11-12T19:11:09.930Z,94.40
2017-11-12T19:13:39.296Z,94.50
2017-11-12T19:16:07.817Z,94.40
2017-11-12T19:18:36.081Z,94.60
2017-11-12T19:21:04.390Z,94.70
2017-11-12T19:23:32.624Z,94.70
2017-11-12T19:26:01.117Z,95.50
2017-11-12T19:28:30.119Z,95.10
2017-11-12T19:30:59.057Z,95.40
2017-11-12T19:33:27.258Z,95.30
2017-11-12T19:35:55.473Z,95.50
2017-11-12T19:38:24.773Z,95.80
2017-11-12T19:40:53.664Z,95.90
2017-11-12T19:43:21.829Z,95.80
2017-11-12T19:45:50.721Z,96.50
2017-11-12T19:48:19.589Z,96.50
2017-11-12T19:50:47.767Z,96.40
2017-11-12T19:53:16.417Z,96.60
2017-11-12T19:55:44.556Z,96.60
2017-11-12T19:58:12.737Z,96.60
2017-11-12T20:00:40.878Z,96.90
2017-11-12T20:03:09.032Z,97.10
2017-11-12T20:05:37.232Z,97.00
2017-11-12T20:08:07.329Z,96.70
2017-11-12T20:10:35.477Z,96.70
2017-11-12T20:13:04.104Z,97.10
2017-11-12T20:15:32.251Z,97.70
2017-11-12T20:18:00.401Z,96.90
2017-11-12T20:20:28.545Z,97.60
2017-11-12T20:22:56.707Z,96.60
2017-11-12T20:25:24.866Z,96.50
2017-11-12T20:27:52.998Z,96.50
2017-11-12T20:30:21.138Z,96.30
2017-11-12T20:32:50.454Z,96.50
2017-11-12T20:35:19.332Z,96.60
2017-11-12T20:37:48.259Z,96.60
2017-11-12T20:40:16.417Z,96.40
2017-11-12T20:42:44.547Z,96.40
2017-11-12T20:45:12.798Z,96.10
2017-11-12T20:47:40.997Z,96.10
2017-11-12T20:50:09.232Z,96.00
2017-11-12T20:52:37.845Z,96.10
2017-11-12T20:55:06.429Z,96.20
2017-11-12T20:57:34.652Z,96.30
2017-11-12T21:00:03.925Z,96.10
2017-11-12T21:02:32.120Z,96.10
2017-11-12T21:05:00.401Z,96.20
2017-11-12T21:07:29.329Z,96.40
2017-11-12T21:09:57.788Z,96.40
2017-11-12T21:12:25.997Z,96.50
2017-11-12T21:14:54.193Z,96.80
2017-11-12T21:17:22.393Z,96.80
2017-11-12T21:19:50.684Z,97.00
2017-11-12T21:22:18.897Z,97.10
2017-11-12T21:24:47.136Z,97.00
2017-11-12T21:27:16.525Z,97.40
2017-11-12T21:29:44.773Z,97.20
2017-11-12T21:32:12.973Z,97.50
2017-11-12T21:34:41.937Z,97.70
2017-11-12T21:37:10.162Z,97.70
2017-11-12T21:39:38.388Z,97.70
2017-11-12T21:42:06.648Z,97.70
2017-11-12T21:44:35.268Z,97.90
2017-11-12T21:47:03.467Z,98.40
2017-11-12T21:49:32.349Z,98.10
2017-11-12T21:52:01.229Z,98.10
2017-11-12T21:54:29.361Z,98.10
2017-11-12T21:56:57.540Z,98.10
2017-11-12T21:59:25.737Z,98.40
2017-11-12T22:01:53.892Z,99.10
2017-11-12T22:04:22.022Z,98.30
2017-11-12T22:06:50.910Z,98.40
2017-11-12T22:09:20.224Z,98.40
2017-11-12T22:11:48.358Z,98.30
2017-11-12T22:14:16.542Z,98.30
2017-11-12T22:16:44.698Z,98.40
2017-11-12T22:19:12.854Z,98.10
2017-11-12T22:21:41.005Z,98.30
2017-11-12T22:24:09.138Z,98.40
2017-11-12T22:26:38.025Z,98.70
2017-11-12T22:29:06.628Z,98.70
2017-11-12T22:31:35.565Z,98.80
2017-11-12T22:34:03.702Z,98.80
2017-11-12T22:36:31.830Z,98.90
2017-11-12T22:38:59.994Z,99.10
2017-11-12T22:41:28.153Z,99.30
2017-11-12T22:43:56.292Z,99.40
2017-11-12T22:46:24.438Z,99.40
2017-11-12T22:48:52.573Z,99.40
2017-11-12T22:51:20.705Z,99.30
2017-11-12T22:53:48.845Z,99.30
2017-11-12T22:56:17.390Z,99.40
2017-11-12T22:58:45.529Z,99.50
2017-11-12T23:01:13.672Z,99.50
2017-11-12T23:03:41.824Z,99.70
2017-11-12T23:06:10.033Z,99.50
2017-11-12T23:08:38.332Z,99.40
2017-11-12T23:11:07.240Z,99.30
2017-11-12T23:13:36.160Z,99.30
2017-11-12T23:16:04.645Z,99.30
2017-11-12T23:18:32.796Z,99.40
2017-11-12T23:21:00.946Z,99.50
2017-11-12T23:23:29.817Z,99.60
2017-11-12T23:25:57.958Z,99.50
2017-11-12T23:28:26.125Z,99.80
2017-11-12T23:30:54.277Z,99.80
2017-11-12T23:33:22.422Z,99.80
2017-11-12T23:35:50.557Z,99.50
2017-11-12T23:38:18.705Z,99.40
2017-11-12T23:40:47.154Z,99.40
2017-11-12T23:43:16.037Z,99.50
2017-11-12T23:45:44.197Z,99.40
2017-11-12T23:48:12.353Z,99.40
2017-11-12T23:50:40.489Z,99.40
2017-11-12T23:53:08.613Z,99.90
2017-11-12T23:55:36.766Z,99.20
2017-11-12T23:58:05.616Z,99.30
